createdAt,value
2023-05-14T00:01:08.241Z,15.97
2023-05-14T00:05:19.820Z,15.84
2023-05-14T00:09:32.705Z,15.75
2023-05-14T00:13:44.464Z,15.60
2023-05-14T00:17:56.157Z,15.50
2023-05-14T00:22:08.970Z,15.44
2023-05-14T00:26:21.538Z,15.38
2023-05-14T00:30:33.437Z,15.33
2023-05-14T00:34:45.084Z,15.30
2023-05-14T00:38:56.792Z,15.20
2023-05-14T00:43:08.399Z,15.17
2023-05-14T00:47:20.142Z,15.17
2023-05-14T00:51:31.807Z,15.17
2023-05-14T00:55:43.516Z,15.09
2023-05-14T00:59:55.643Z,15.04
2023-05-14T01:04:08.196Z,15.04
2023-05-14T01:08:41.854Z,15.03
2023-05-14T01:13:07.805Z,15.07
2023-05-14T01:17:22.975Z,14.94
2023-05-14T01:21:38.630Z,14.98
2023-05-14T01:25:50.363Z,14.86
2023-05-14T01:30:57.190Z,14.82
2023-05-14T01:35:10.375Z,14.76
2023-05-14T01:39:23.716Z,14.64
2023-05-14T01:43:36.103Z,14.61
2023-05-14T01:47:48.074Z,14.52
2023-05-14T01:51:59.775Z,14.49
2023-05-14T01:56:11.447Z,14.41
2023-05-14T02:00:27.536Z,14.29
2023-05-14T02:04:39.199Z,14.29
2023-05-14T02:08:50.950Z,14.22
2023-05-14T02:13:03.953Z,14.13
2023-05-14T02:17:17.711Z,14.09
2023-05-14T02:21:29.336Z,14.02
2023-05-14T02:25:41.000Z,13.91
2023-05-14T02:29:52.901Z,13.89
2023-05-14T02:34:06.677Z,13.77
2023-05-14T02:38:18.759Z,13.69
2023-05-14T02:42:30.463Z,13.55
2023-05-14T02:46:42.913Z,13.47
2023-05-14T02:50:54.619Z,13.39
2023-05-14T02:55:06.713Z,13.32
2023-05-14T02:59:18.444Z,13.26
2023-05-14T03:03:31.011Z,13.16
2023-05-14T03:07:43.201Z,13.11
2023-05-14T03:11:55.036Z,13.07
2023-05-14T03:16:06.826Z,12.98
2023-05-14T03:20:18.572Z,12.95
2023-05-14T03:24:31.552Z,12.85
2023-05-14T03:28:44.161Z,12.90
2023-05-14T03:32:55.915Z,12.81
2023-05-14T03:37:07.613Z,12.74
2023-05-14T03:41:20.069Z,12.67
2023-05-14T03:45:32.378Z,12.66
2023-05-14T03:49:44.127Z,12.64
2023-05-14T03:54:01.280Z,12.68
2023-05-14T03:58:14.048Z,12.67
2023-05-14T04:02:25.924Z,12.60
2023-05-14T04:06:37.657Z,12.60
2023-05-14T04:10:49.997Z,12.60
2023-05-14T04:15:01.850Z,12.64
2023-05-14T04:19:14.020Z,12.60
2023-05-14T04:23:26.875Z,12.61
2023-05-14T04:27:38.489Z,12.64
2023-05-14T04:31:50.119Z,12.60
2023-05-14T04:36:02.016Z,12.67
2023-05-14T04:40:13.708Z,12.73
2023-05-14T04:44:26.249Z,12.88
2023-05-14T04:48:37.824Z,13.25
2023-05-14T04:52:49.412Z,14.10
2023-05-14T04:57:03.983Z,15.17
2023-05-14T05:01:15.885Z,16.25
2023-05-14T05:05:27.505Z,17.09
2023-05-14T05:09:39.172Z,17.50
2023-05-14T05:13:50.708Z,18.01
2023-05-14T05:18:02.385Z,18.26
2023-05-14T05:22:14.023Z,18.29
2023-05-14T05:26:27.052Z,18.55
2023-05-14T05:30:38.802Z,18.80
2023-05-14T05:34:51.961Z,19.53
2023-05-14T05:39:03.739Z,20.35
2023-05-14T05:43:15.637Z,20.91
2023-05-14T05:47:27.414Z,21.41
2023-05-14T05:51:39.118Z,21.48
2023-05-14T05:55:53.648Z,21.53
2023-05-14T06:00:15.326Z,21.82
2023-05-14T06:04:26.904Z,22.43
2023-05-14T06:08:38.495Z,22.83
2023-05-14T06:12:50.395Z,23.37
2023-05-14T06:17:02.261Z,23.82
2023-05-14T06:21:14.048Z,24.04
2023-05-14T06:25:25.754Z,24.55
2023-05-14T06:29:38.065Z,23.93
2023-05-14T06:33:49.848Z,23.10
2023-05-14T06:38:01.537Z,23.29
2023-05-14T06:42:13.141Z,23.80
2023-05-14T06:46:24.761Z,24.27
2023-05-14T06:50:36.394Z,24.85
2023-05-14T06:54:48.043Z,25.53
2023-05-14T06:58:59.715Z,26.19
2023-05-14T07:03:11.471Z,26.81
2023-05-14T07:07:23.273Z,26.09
2023-05-14T07:11:34.981Z,25.44
2023-05-14T07:15:46.655Z,25.51
2023-05-14T07:19:58.346Z,25.84
2023-05-14T07:24:10.034Z,26.15
2023-05-14T07:28:21.636Z,27.15
2023-05-14T07:32:33.364Z,27.46
2023-05-14T07:36:45.411Z,27.35
2023-05-14T07:40:57.123Z,27.86
2023-05-14T07:45:09.888Z,28.23
2023-05-14T07:49:21.526Z,28.37
2023-05-14T07:53:33.188Z,28.66
2023-05-14T07:57:45.670Z,28.89
2023-05-14T08:01:57.531Z,28.92
2023-05-14T08:06:09.378Z,29.05
2023-05-14T08:10:21.264Z,29.81
2023-05-14T08:14:33.245Z,29.39
2023-05-14T08:18:44.944Z,29.95
2023-05-14T08:22:58.072Z,30.09
2023-05-14T08:27:09.924Z,30.47
2023-05-14T08:31:21.595Z,31.47
2023-05-14T08:35:33.308Z,31.40
2023-05-14T08:39:45.050Z,31.24
2023-05-14T08:44:12.976Z,30.79
2023-05-14T08:48:29.090Z,30.70
2023-05-14T08:52:41.006Z,30.32
2023-05-14T08:56:53.231Z,30.13
2023-05-14T09:01:04.974Z,29.71
2023-05-14T09:05:17.777Z,29.21
2023-05-14T09:09:30.000Z,28.87
2023-05-14T09:13:41.692Z,29.43
2023-05-14T09:17:53.587Z,30.34
2023-05-14T09:22:09.403Z,30.97
2023-05-14T09:26:24.103Z,31.51
2023-05-14T09:30:37.072Z,31.71
2023-05-14T09:34:48.735Z,31.74
2023-05-14T09:39:00.849Z,32.06
2023-05-14T09:43:13.031Z,32.49
2023-05-14T09:47:24.885Z,32.84
2023-05-14T09:51:38.483Z,33.17
2023-05-14T09:55:50.171Z,33.73
2023-05-14T10:00:01.911Z,33.66
2023-05-14T10:04:16.442Z,33.81
2023-05-14T10:08:33.599Z,33.80
2023-05-14T10:12:57.109Z,33.50
2023-05-14T10:17:18.114Z,33.26
2023-05-14T10:21:32.117Z,32.94
2023-05-14T10:25:43.968Z,32.43
2023-05-14T10:29:56.157Z,31.75
2023-05-14T10:34:37.990Z,31.12
2023-05-14T10:38:57.244Z,29.98
2023-05-14T10:43:11.326Z,29.00
2023-05-14T10:47:23.059Z,28.65
2023-05-14T10:51:36.412Z,28.68
2023-05-14T10:55:48.202Z,29.51
2023-05-14T11:00:01.314Z,29.74
2023-05-14T11:04:19.338Z,29.70
2023-05-14T11:08:32.572Z,29.78
2023-05-14T11:12:47.664Z,30.47
2023-05-14T11:16:59.365Z,30.96
2023-05-14T11:21:11.101Z,31.31
2023-05-14T11:25:25.735Z,31.54
2023-05-14T11:29:38.119Z,32.23
2023-05-14T11:33:49.687Z,32.22
2023-05-14T11:38:01.301Z,32.54
2023-05-14T11:42:14.732Z,32.77
2023-05-14T11:46:26.475Z,33.06
2023-05-14T11:50:38.161Z,33.24
2023-05-14T11:54:50.926Z,33.26
2023-05-14T11:59:02.774Z,32.62
2023-05-14T12:03:14.479Z,31.81
2023-05-14T12:07:30.428Z,31.02
2023-05-14T12:11:42.068Z,30.28
2023-05-14T12:15:58.459Z,29.90
2023-05-14T12:20:11.658Z,29.34
2023-05-14T12:24:25.637Z,28.97
2023-05-14T12:28:43.361Z,28.49
2023-05-14T12:32:55.478Z,28.46
2023-05-14T12:37:07.382Z,28.40
2023-05-14T12:41:19.075Z,28.28
2023-05-14T12:45:30.942Z,28.43
2023-05-14T12:49:42.549Z,28.62
2023-05-14T12:53:54.296Z,28.47
2023-05-14T12:58:05.904Z,28.28
2023-05-14T13:02:18.790Z,28.00
2023-05-14T13:06:31.710Z,27.65
2023-05-14T13:10:47.084Z,27.45
2023-05-14T13:14:58.751Z,27.22
2023-05-14T13:19:10.479Z,27.37
2023-05-14T13:23:22.312Z,27.47
2023-05-14T13:27:35.797Z,27.36
2023-05-14T13:31:47.432Z,27.34
2023-05-14T13:35:59.077Z,27.48
2023-05-14T13:40:11.187Z,27.52
2023-05-14T13:44:23.033Z,27.38
2023-05-14T13:48:35.934Z,27.27
2023-05-14T13:52:47.640Z,27.12
2023-05-14T13:56:59.258Z,27.08
2023-05-14T14:01:10.965Z,27.09
2023-05-14T14:05:23.987Z,27.10
2023-05-14T14:09:36.981Z,27.23
2023-05-14T14:13:48.732Z,27.19
2023-05-14T14:18:00.524Z,27.21
2023-05-14T14:22:14.053Z,27.22
2023-05-14T14:26:27.914Z,27.03
2023-05-14T14:30:39.780Z,26.53
2023-05-14T14:34:51.389Z,26.55
2023-05-14T14:39:03.058Z,26.21
2023-05-14T14:43:14.717Z,26.17
2023-05-14T14:47:26.341Z,26.12
2023-05-14T14:51:38.086Z,25.86
2023-05-14T14:55:50.476Z,25.72
2023-05-14T15:00:02.647Z,25.85
2023-05-14T15:04:14.536Z,25.65
2023-05-14T15:08:30.154Z,25.44
2023-05-14T15:12:41.841Z,25.41
2023-05-14T15:16:54.049Z,25.20
2023-05-14T15:21:05.910Z,25.08
2023-05-14T15:25:17.938Z,25.08
2023-05-14T15:29:29.625Z,24.76
2023-05-14T15:33:41.872Z,24.68
2023-05-14T15:37:59.285Z,24.82
2023-05-14T15:42:10.915Z,24.85
2023-05-14T15:46:23.632Z,24.73
2023-05-14T15:50:35.335Z,24.50
2023-05-14T15:54:47.204Z,24.44
2023-05-14T15:58:58.911Z,24.46
2023-05-14T16:03:11.131Z,24.33
2023-05-14T16:07:23.033Z,24.20
2023-05-14T16:11:34.698Z,23.81
2023-05-14T16:15:46.966Z,23.87
2023-05-14T16:20:00.874Z,23.73
2023-05-14T16:24:12.823Z,23.72
2023-05-14T16:28:24.527Z,23.80
2023-05-14T16:32:36.210Z,23.82
2023-05-14T16:36:47.948Z,23.88
2023-05-14T16:41:00.362Z,23.81
2023-05-14T16:45:12.102Z,23.60
2023-05-14T16:49:23.768Z,23.49
2023-05-14T16:53:36.062Z,23.37
2023-05-14T16:57:47.763Z,23.23
2023-05-14T17:01:59.559Z,23.12
2023-05-14T17:06:11.448Z,23.09
2023-05-14T17:10:25.258Z,22.91
2023-05-14T17:14:36.923Z,22.79
2023-05-14T17:18:49.181Z,22.69
2023-05-14T17:23:00.912Z,22.66
2023-05-14T17:27:13.807Z,22.61
2023-05-14T17:31:27.001Z,22.53
2023-05-14T17:35:38.901Z,22.44
2023-05-14T17:39:51.115Z,22.36
2023-05-14T17:44:02.818Z,22.28
2023-05-14T17:48:14.518Z,22.12
2023-05-14T17:52:26.324Z,22.05
2023-05-14T17:56:38.155Z,21.80
2023-05-14T18:00:49.859Z,21.57
2023-05-14T18:05:02.792Z,21.33
2023-05-14T18:09:15.285Z,21.19
2023-05-14T18:13:26.942Z,21.11
2023-05-14T18:17:38.631Z,20.96
2023-05-14T18:21:50.822Z,20.88
2023-05-14T18:26:02.699Z,20.68
2023-05-14T18:30:15.997Z,20.39
2023-05-14T18:34:27.709Z,20.29
2023-05-14T18:38:40.842Z,20.19
2023-05-14T18:42:52.537Z,20.02
2023-05-14T18:47:04.399Z,19.84
2023-05-14T18:51:16.133Z,19.64
2023-05-14T18:55:27.805Z,19.51
2023-05-14T18:59:39.495Z,19.34
2023-05-14T19:03:52.933Z,19.09
2023-05-14T19:08:04.829Z,18.87
2023-05-14T19:12:16.678Z,18.61
2023-05-14T19:16:28.465Z,18.48
2023-05-14T19:20:40.297Z,18.31
2023-05-14T19:24:51.957Z,18.16
2023-05-14T19:29:03.613Z,18.00
2023-05-14T19:33:15.435Z,17.81
2023-05-14T19:37:27.304Z,17.67
2023-05-14T19:41:39.061Z,17.57
2023-05-14T19:45:50.800Z,17.55
2023-05-14T19:50:02.516Z,17.29
2023-05-14T19:54:14.749Z,17.12
2023-05-14T19:58:26.684Z,16.92
2023-05-14T20:02:40.491Z,16.86
2023-05-14T20:06:52.761Z,16.80
2023-05-14T20:11:04.638Z,16.68
2023-05-14T20:15:16.333Z,16.59
2023-05-14T20:19:27.993Z,16.51
2023-05-14T20:23:39.741Z,16.49
2023-05-14T20:27:52.508Z,16.33
2023-05-14T20:32:04.405Z,16.14
2023-05-14T20:36:16.188Z,16.14
2023-05-14T20:40:27.908Z,15.98
2023-05-14T20:44:40.012Z,16.02
2023-05-14T20:48:54.533Z,15.90
2023-05-14T20:53:06.424Z,15.92
2023-05-14T20:57:18.917Z,15.82
2023-05-14T21:01:30.656Z,15.74
2023-05-14T21:05:43.724Z,15.68
2023-05-14T21:09:55.481Z,15.58
2023-05-14T21:14:07.123Z,15.47
2023-05-14T21:18:18.824Z,15.46
2023-05-14T21:22:30.582Z,15.37
2023-05-14T21:26:42.538Z,15.38
2023-05-14T21:30:54.173Z,15.23
2023-05-14T21:35:06.324Z,15.13
2023-05-14T21:39:18.037Z,15.18
2023-05-14T21:43:29.707Z,15.11
2023-05-14T21:47:41.466Z,15.00
2023-05-14T21:51:56.398Z,15.00
2023-05-14T21:56:08.315Z,15.01
2023-05-14T22:00:23.504Z,14.95
2023-05-14T22:04:35.448Z,15.01
2023-05-14T22:08:47.256Z,15.00
2023-05-14T22:12:59.032Z,15.01
2023-05-14T22:17:12.702Z,14.81
2023-05-14T22:21:24.348Z,14.76
2023-05-14T22:25:36.093Z,14.77
2023-05-14T22:29:47.713Z,14.79
2023-05-14T22:33:59.363Z,14.77
2023-05-14T22:38:11.023Z,14.77
2023-05-14T22:42:22.693Z,14.62
2023-05-14T22:46:34.391Z,14.56
2023-05-14T22:50:46.055Z,14.54
2023-05-14T22:54:57.640Z,14.47
2023-05-14T22:59:09.346Z,14.40
2023-05-14T23:03:21.109Z,14.33
2023-05-14T23:07:32.859Z,14.39
2023-05-14T23:11:44.474Z,14.37
2023-05-14T23:15:56.214Z,14.22
2023-05-14T23:20:10.787Z,14.17
2023-05-14T23:24:22.565Z,14.07
2023-05-14T23:28:34.211Z,13.86
2023-05-14T23:32:46.031Z,13.92
2023-05-14T23:36:57.770Z,13.88
2023-05-14T23:41:09.534Z,13.93
2023-05-14T23:45:21.181Z,13.82
2023-05-14T23:49:32.857Z,13.72
2023-05-14T23:53:44.573Z,13.65
2023-05-14T23:57:56.254Z,13.55
